METAR Data
IDs: Format: Raw Decoded Include TAF

Data at: 0947 UTC 13 Aug 2022

EDSB 130920Z 36010KT 330V030 CAVOK 25/11 Q1016